Time;durP1;ratioP1;P1;durP2;ratioP2;P2;SDS_P1;SDS_P2;PMS_P1;PMS_P2;Temp;Humidity;BMP_temperature;BMP_pressure;BME280_temperature;BME280_humidity;BME280_pressure;Samples;Min_cycle;Max_cycle;Signal;HPM_P1;HPM_P2
2022/07/29 00:00:28;;;;;;;2.87;1.30;;;18.90;99.90;;;;;;5030623;28;20433;-50
2022/07/29 00:02:55;;;;;;;4.00;1.83;;;18.90;99.90;;;;;;5031032;28;20438;-49
2022/07/29 00:05:22;;;;;;;2.10;1.37;;;18.70;99.90;;;;;;5030878;28;20839;-49
2022/07/29 00:07:50;;;;;;;3.27;1.60;;;18.70;99.90;;;;;;5031115;28;20511;-49
2022/07/29 00:10:18;;;;;;;1.90;1.60;;;18.70;99.90;;;;;;5030343;28;20482;-51
2022/07/29 00:12:45;;;;;;;2.50;1.40;;;18.80;99.90;;;;;;5030787;28;20545;-52
2022/07/29 00:15:12;;;;;;;4.23;1.90;;;18.90;99.90;;;;;;5030584;28;20500;-49
2022/07/29 00:17:39;;;;;;;2.23;1.57;;;19.00;99.90;;;;;;5030695;28;20446;-49
2022/07/29 00:20:07;;;;;;;3.10;1.63;;;19.00;99.90;;;;;;5030410;28;20501;-49
2022/07/29 00:22:37;;;;;;;1.90;1.43;;;18.80;99.90;;;;;;5030557;28;20532;-49
2022/07/29 00:25:07;;;;;;;3.63;1.63;;;18.90;99.90;;;;;;5030336;28;20426;-51
2022/07/29 00:27:34;;;;;;;1.60;1.20;;;18.90;99.90;;;;;;5030544;28;20552;-49
2022/07/29 00:30:02;;;;;;;3.17;1.30;;;18.80;99.90;;;;;;5030044;28;20814;-49
2022/07/29 00:32:29;;;;;;;1.93;1.40;;;18.80;99.90;;;;;;5030351;28;21030;-49
2022/07/29 00:37:40;;;;;;;2.40;1.90;;;18.90;99.90;;;;;;5030601;28;20438;-49
2022/07/29 00:40:10;;;;;;;3.63;1.80;;;18.90;99.90;;;;;;5030049;28;20442;-52
2022/07/29 00:42:43;;;;;;;2.90;1.90;;;19.00;99.90;;;;;;5029841;28;20474;-53
2022/07/29 00:45:11;;;;;;;2.73;1.63;;;18.90;99.90;;;;;;5030346;28;20446;-49
2022/07/29 00:47:38;;;;;;;2.77;1.60;;;18.90;99.90;;;;;;5030182;28;20449;-49
2022/07/29 00:50:06;;;;;;;2.53;1.37;;;18.90;99.90;;;;;;5029875;28;20547;-49
2022/07/29 00:52:34;;;;;;;2.00;1.50;;;19.00;99.90;;;;;;5030099;28;20485;-51
2022/07/29 00:55:01;;;;;;;2.30;1.80;;;19.00;99.90;;;;;;5030058;28;20450;-49
2022/07/29 00:57:29;;;;;;;2.27;1.40;;;19.00;99.90;;;;;;5030270;28;20450;-50
2022/07/29 00:59:56;;;;;;;4.23;1.50;;;18.90;99.90;;;;;;5029823;28;20811;-48
2022/07/29 01:02:23;;;;;;;2.13;1.30;;;18.80;99.90;;;;;;5030316;28;20549;-49
2022/07/29 01:04:50;;;;;;;2.53;1.60;;;18.80;99.90;;;;;;5029989;28;20496;-50
2022/07/29 01:07:19;;;;;;;2.27;1.63;;;18.70;99.90;;;;;;5029956;28;20500;-49
2022/07/29 01:09:47;;;;;;;2.40;1.40;;;18.80;99.90;;;;;;5029496;28;20470;-50
2022/07/29 01:12:18;;;;;;;2.23;1.30;;;18.70;99.90;;;;;;5029874;28;20894;-50
2022/07/29 01:14:48;;;;;;;2.80;1.93;;;18.70;99.90;;;;;;5029922;28;20504;-50
2022/07/29 01:17:22;;;;;;;2.40;1.50;;;18.80;99.90;;;;;;5029931;28;20458;-49
2022/07/29 01:19:57;;;;;;;2.27;1.40;;;18.90;99.90;;;;;;5029705;28;20799;-51
2022/07/29 01:22:43;;;;;;;4.03;2.07;;;18.80;99.90;;;;;;5029856;28;20468;-49
2022/07/29 01:25:35;;;;;;;2.70;1.77;;;18.70;99.90;;;;;;5029809;28;21001;-49
2022/07/29 01:28:18;;;;;;;3.17;2.03;;;18.60;99.90;;;;;;5029811;28;20446;-51
2022/07/29 01:30:50;;;;;;;2.50;1.70;;;18.70;99.90;;;;;;5029251;28;20970;-49
2022/07/29 01:36:07;;;;;;;2.80;1.93;;;18.70;99.90;;;;;;5028595;28;20437;-49
2022/07/29 01:38:36;;;;;;;2.73;1.50;;;18.80;99.90;;;;;;5033101;28;20434;-50
2022/07/29 01:41:09;;;;;;;2.93;1.60;;;18.80;99.90;;;;;;5033055;28;20877;-48
2022/07/29 01:43:43;;;;;;;3.70;1.67;;;18.70;99.90;;;;;;5033629;28;20442;-52
2022/07/29 01:46:18;;;;;;;3.03;1.50;;;18.60;99.90;;;;;;5033651;28;20445;-49
2022/07/29 01:48:48;;;;;;;2.50;1.60;;;18.50;99.90;;;;;;5033382;28;20445;-49
2022/07/29 01:51:19;;;;;;;3.40;1.70;;;18.40;99.90;;;;;;5033074;28;20482;-49
2022/07/29 01:53:52;;;;;;;4.30;2.50;;;18.50;99.90;;;;;;5033378;28;20453;-51
2022/07/29 01:56:23;;;;;;;2.13;1.63;;;18.60;99.90;;;;;;5033261;28;20829;-49
2022/07/29 01:58:53;;;;;;;2.60;1.83;;;18.50;99.90;;;;;;5033207;28;20442;-49
2022/07/29 02:01:22;;;;;;;4.43;1.90;;;18.50;99.90;;;;;;5032932;28;20810;-53
2022/07/29 02:03:51;;;;;;;5.03;1.77;;;18.50;99.90;;;;;;5033308;28;20461;-50
2022/07/29 02:06:22;;;;;;;2.20;1.70;;;18.30;99.90;;;;;;5033378;28;20836;-51
2022/07/29 02:08:51;;;;;;;2.40;1.30;;;17.90;99.90;;;;;;5033029;28;20473;-49
2022/07/29 02:11:18;;;;;;;2.90;1.67;;;17.60;99.90;;;;;;5032835;28;20486;-49
2022/07/29 02:13:47;;;;;;;4.40;2.00;;;17.40;99.90;;;;;;5033008;28;20442;-49
2022/07/29 02:16:16;;;;;;;2.60;2.10;;;17.30;99.90;;;;;;5033000;28;20449;-49
2022/07/29 02:18:48;;;;;;;2.00;1.77;;;17.40;99.90;;;;;;5032847;28;20840;-49
2022/07/29 02:21:22;;;;;;;3.30;1.83;;;17.60;99.90;;;;;;5032960;28;20462;-49
2022/07/29 02:23:50;;;;;;;2.03;1.40;;;17.70;99.90;;;;;;5032844;28;20508;-53
2022/07/29 02:26:20;;;;;;;2.53;1.60;;;17.80;99.90;;;;;;5032804;28;20515;-49
2022/07/29 02:28:48;;;;;;;2.13;1.40;;;17.80;99.90;;;;;;5032569;28;20464;-48
2022/07/29 02:31:17;;;;;;;2.20;1.43;;;17.90;99.90;;;;;;5032483;28;20474;-49
2022/07/29 02:33:48;;;;;;;2.60;1.87;;;17.90;99.90;;;;;;5032993;28;20856;-51
2022/07/29 02:36:16;;;;;;;2.63;1.83;;;17.90;99.90;;;;;;5032691;28;20450;-48
2022/07/29 02:38:57;;;;;;;2.90;1.87;;;18.00;99.90;;;;;;5032867;28;20454;-50
2022/07/29 02:41:28;;;;;;;5.73;2.40;;;17.90;99.90;;;;;;5032122;28;20480;-49
2022/07/29 02:43:59;;;;;;;3.30;1.60;;;17.90;99.90;;;;;;5032531;28;20816;-49
2022/07/29 02:46:31;;;;;;;2.47;1.63;;;17.90;99.90;;;;;;5032585;28;20812;-48
2022/07/29 02:49:08;;;;;;;2.43;1.70;;;17.90;99.90;;;;;;5031767;28;20470;-50
2022/07/29 02:51:43;;;;;;;2.67;1.80;;;17.80;99.90;;;;;;5032093;28;20529;-51
2022/07/29 02:54:15;;;;;;;2.50;1.80;;;17.80;99.90;;;;;;5032363;28;20454;-48
2022/07/29 02:56:45;;;;;;;2.50;2.30;;;17.80;99.90;;;;;;5032100;28;20438;-49
2022/07/29 02:59:14;;;;;;;2.03;1.47;;;17.80;99.90;;;;;;5031942;28;20450;-49
2022/07/29 03:01:44;;;;;;;2.10;1.70;;;17.80;99.90;;;;;;5032310;28;20490;-49
2022/07/29 03:04:15;;;;;;;2.80;1.80;;;17.70;99.90;;;;;;5032123;28;20537;-48
2022/07/29 03:06:44;;;;;;;2.30;1.70;;;17.50;99.90;;;;;;5032105;28;20454;-50
2022/07/29 03:09:13;;;;;;;3.53;2.20;;;17.60;99.90;;;;;;5032229;28;20446;-48
2022/07/29 03:11:40;;;;;;;3.03;2.00;;;17.60;99.90;;;;;;5031612;28;20561;-49
2022/07/29 03:14:08;;;;;;;2.63;1.90;;;17.60;99.90;;;;;;5032006;28;20545;-48
2022/07/29 03:16:36;;;;;;;3.57;2.03;;;17.70;99.90;;;;;;5031880;28;20447;-49
2022/07/29 03:19:05;;;;;;;3.43;1.80;;;17.70;99.90;;;;;;5031419;28;20817;-48
2022/07/29 03:21:34;;;;;;;2.63;2.00;;;17.60;99.90;;;;;;5031741;28;20462;-49
2022/07/29 03:24:01;;;;;;;3.83;2.43;;;17.60;99.90;;;;;;5031712;28;20947;-49
2022/07/29 03:26:28;;;;;;;2.93;1.90;;;17.70;99.90;;;;;;5031717;28;20450;-50
2022/07/29 03:28:56;;;;;;;5.03;2.00;;;17.80;99.90;;;;;;5031478;28;20508;-50
2022/07/29 03:31:23;;;;;;;3.77;2.20;;;17.80;99.90;;;;;;5031315;28;20562;-48
2022/07/29 03:33:50;;;;;;;2.67;2.10;;;17.90;99.90;;;;;;5031550;28;20454;-51
2022/07/29 03:36:17;;;;;;;6.33;2.20;;;17.90;99.90;;;;;;5031517;28;20504;-49
2022/07/29 03:38:47;;;;;;;4.83;2.30;;;17.90;99.90;;;;;;5031147;28;20522;-49
2022/07/29 03:41:15;;;;;;;5.53;2.00;;;17.90;99.90;;;;;;5097422;22;21555;-50
2022/07/29 03:43:43;;;;;;;3.47;2.03;;;18.00;99.90;;;;;;5091369;28;20428;-50
2022/07/29 03:46:12;;;;;;;4.90;2.33;;;18.10;99.90;;;;;;5091453;28;21014;-49
2022/07/29 03:48:47;;;;;;;4.90;1.70;;;18.10;99.90;;;;;;5091656;28;20426;-50
2022/07/29 03:51:14;;;;;;;2.63;2.10;;;17.90;99.90;;;;;;5091542;28;20561;-50
2022/07/29 03:53:42;;;;;;;3.43;2.23;;;17.90;99.90;;;;;;5091286;28;20459;-49
2022/07/29 03:56:16;;;;;;;2.27;1.90;;;18.00;99.90;;;;;;5091265;28;20443;-51
2022/07/29 03:58:44;;;;;;;4.07;2.10;;;18.00;99.90;;;;;;5091099;28;20506;-50
2022/07/29 04:01:12;;;;;;;2.03;1.80;;;18.00;99.90;;;;;;5090153;28;20509;-51
2022/07/29 04:03:40;;;;;;;3.00;1.70;;;18.10;99.90;;;;;;5091148;28;20443;-52
2022/07/29 04:06:08;;;;;;;2.57;1.47;;;18.00;99.90;;;;;;5091038;28;20444;-48
2022/07/29 04:08:35;;;;;;;2.57;1.97;;;18.00;99.90;;;;;;5091025;28;20505;-49
2022/07/29 04:11:02;;;;;;;2.43;1.73;;;17.90;99.90;;;;;;5090509;28;20875;-50
2022/07/29 04:13:31;;;;;;;3.00;2.10;;;17.90;99.90;;;;;;5091243;28;20440;-49
2022/07/29 04:15:58;;;;;;;2.90;1.70;;;17.80;99.90;;;;;;5090857;28;20475;-52
2022/07/29 04:18:25;;;;;;;3.00;2.00;;;17.70;99.90;;;;;;5090849;28;20501;-48
2022/07/29 04:20:52;;;;;;;2.30;1.80;;;17.70;99.90;;;;;;5090430;28;20440;-50
2022/07/29 04:23:19;;;;;;;2.33;1.40;;;17.70;99.90;;;;;;5090714;28;20448;-49
2022/07/29 04:25:46;;;;;;;4.50;1.87;;;17.60;99.90;;;;;;5090759;28;20520;-51
2022/07/29 04:28:13;;;;;;;3.83;1.80;;;17.50;99.90;;;;;;5090578;28;20432;-49
2022/07/29 04:30:42;;;;;;;2.40;1.63;;;17.60;99.90;;;;;;5090666;28;20470;-48
2022/07/29 04:33:09;;;;;;;2.50;1.77;;;17.60;99.90;;;;;;5090495;28;20475;-48
2022/07/29 04:35:38;;;;;;;3.00;1.90;;;17.50;99.90;;;;;;5090750;28;20439;-49
2022/07/29 04:38:06;;;;;;;2.80;1.83;;;17.60;99.90;;;;;;5090484;28;20447;-48
2022/07/29 04:40:34;;;;;;;4.17;1.80;;;17.50;99.90;;;;;;5089838;28;20444;-48
2022/07/29 04:43:01;;;;;;;3.17;1.97;;;17.20;99.90;;;;;;5090271;28;21045;-49
2022/07/29 04:45:29;;;;;;;1.93;1.50;;;17.20;99.90;;;;;;5090632;28;20540;-52
2022/07/29 04:47:57;;;;;;;10.03;2.00;;;17.40;99.90;;;;;;5090345;28;20451;-49
2022/07/29 04:50:24;;;;;;;2.90;1.70;;;17.50;99.90;;;;;;5089934;28;20467;-53
2022/07/29 04:52:51;;;;;;;3.50;1.97;;;17.50;99.90;;;;;;5090194;28;21053;-50
2022/07/29 04:55:18;;;;;;;3.63;1.87;;;17.50;99.90;;;;;;5090001;28;20886;-51
2022/07/29 04:57:45;;;;;;;2.40;1.93;;;17.50;99.90;;;;;;5090278;28;20448;-48
2022/07/29 05:00:13;;;;;;;3.13;1.43;;;17.50;99.90;;;;;;5089796;28;20423;-48
2022/07/29 05:02:40;;;;;;;3.60;1.90;;;17.50;99.90;;;;;;5090135;28;20468;-50
2022/07/29 05:05:09;;;;;;;2.10;1.57;;;17.50;99.90;;;;;;5090137;28;20455;-49
2022/07/29 05:07:36;;;;;;;2.27;1.73;;;17.50;99.90;;;;;;5090066;28;20447;-50
2022/07/29 05:10:04;;;;;;;3.60;2.43;;;17.50;99.90;;;;;;5089952;28;20461;-49
2022/07/29 05:12:31;;;;;;;2.57;1.80;;;17.60;99.90;;;;;;5089811;28;20540;-49
2022/07/29 05:14:58;;;;;;;7.80;2.20;;;17.60;99.90;;;;;;5090069;28;20455;-49
2022/07/29 05:17:25;;;;;;;2.90;2.20;;;17.60;99.90;;;;;;5090220;28;20447;-50
2022/07/29 05:19:52;;;;;;;5.13;2.27;;;17.60;99.90;;;;;;5089743;28;20448;-49
2022/07/29 05:22:21;;;;;;;7.53;2.90;;;17.70;99.90;;;;;;5089797;28;20768;-49
2022/07/29 05:24:48;;;;;;;2.40;1.80;;;17.80;99.90;;;;;;5090023;28;20455;-51
2022/07/29 05:27:15;;;;;;;4.47;2.43;;;17.90;99.90;;;;;;5089876;28;20508;-48
2022/07/29 05:29:42;;;;;;;2.20;1.67;;;17.90;99.90;;;;;;5089713;28;20940;-53
2022/07/29 05:32:09;;;;;;;4.30;1.83;;;18.00;99.90;;;;;;5089564;28;20475;-49
2022/07/29 05:34:36;;;;;;;3.17;2.57;;;17.90;99.90;;;;;;5089793;28;20448;-48
2022/07/29 05:37:03;;;;;;;2.43;2.23;;;18.00;99.90;;;;;;5090040;28;20848;-49
2022/07/29 05:39:32;;;;;;;2.53;1.90;;;18.00;99.90;;;;;;5089620;28;20504;-49
2022/07/29 05:41:59;;;;;;;2.57;2.03;;;18.00;99.90;;;;;;5089475;28;20471;-48
2022/07/29 05:44:26;;;;;;;3.17;2.40;;;18.00;99.90;;;;;;5089563;28;20979;-50
2022/07/29 05:46:53;;;;;;;3.57;2.40;;;18.00;99.90;;;;;;5089706;28;20834;-49
2022/07/29 05:49:20;;;;;;;2.40;1.90;;;18.00;99.90;;;;;;5089456;28;20443;-48
2022/07/29 05:51:49;;;;;;;3.47;2.13;;;17.80;99.90;;;;;;5089411;28;20525;-51
2022/07/29 05:54:16;;;;;;;3.80;3.00;;;17.90;99.90;;;;;;5089569;28;20442;-48
2022/07/29 05:56:44;;;;;;;2.63;2.43;;;17.90;99.90;;;;;;5089674;28;20452;-49
2022/07/29 05:59:11;;;;;;;4.30;2.73;;;18.00;99.90;;;;;;5089330;28;20447;-49
2022/07/29 06:01:39;;;;;;;3.03;2.73;;;18.00;99.90;;;;;;5089645;28;20456;-49
2022/07/29 06:04:06;;;;;;;2.57;2.17;;;18.10;99.90;;;;;;5089792;28;20492;-49
2022/07/29 06:06:34;;;;;;;5.00;2.77;;;18.10;99.90;;;;;;5089664;28;20447;-49
2022/07/29 06:09:01;;;;;;;3.03;2.73;;;18.20;99.90;;;;;;5089280;28;21007;-52
2022/07/29 06:11:28;;;;;;;4.47;2.83;;;18.20;99.90;;;;;;5089253;28;20557;-48
2022/07/29 06:13:57;;;;;;;3.57;2.23;;;18.20;99.90;;;;;;5089444;28;20447;-54
2022/07/29 06:16:24;;;;;;;4.77;2.80;;;18.10;99.90;;;;;;5089438;28;20439;-51
2022/07/29 06:18:50;;;;;;;3.30;2.23;;;18.20;99.90;;;;;;5089172;28;20988;-49
2022/07/29 06:21:17;;;;;;;4.73;2.80;;;18.30;99.90;;;;;;5089341;28;20498;-48
2022/07/29 06:23:46;;;;;;;3.60;2.30;;;18.40;99.90;;;;;;5091319;28;20447;-50
2022/07/29 06:26:13;;;;;;;3.53;2.63;;;18.40;99.90;;;;;;5092769;28;20519;-48
2022/07/29 06:28:40;;;;;;;2.83;2.07;;;18.50;99.90;;;;;;5092737;28;20443;-54
2022/07/29 06:31:08;;;;;;;4.00;2.17;;;18.50;99.90;;;;;;5092625;28;20566;-50
2022/07/29 06:33:35;;;;;;;2.83;1.93;;;18.50;99.90;;;;;;5092717;28;20458;-48
2022/07/29 06:36:05;;;;;;;2.80;2.30;;;18.50;99.90;;;;;;5092718;28;20432;-50
2022/07/29 06:38:33;;;;;;;3.27;2.80;;;18.60;99.90;;;;;;5092623;28;20523;-49
2022/07/29 06:41:03;;;;;;;2.93;2.53;;;18.70;99.90;;;;;;5091818;28;20440;-49
2022/07/29 06:43:33;;;;;;;2.70;2.37;;;18.80;99.90;;;;;;5092885;28;20925;-47
2022/07/29 06:46:04;;;;;;;3.23;2.33;;;18.90;99.90;;;;;;5092609;28;20546;-49
2022/07/29 06:48:34;;;;;;;3.27;1.93;;;19.00;99.90;;;;;;5092543;28;20501;-53
2022/07/29 06:51:01;;;;;;;2.80;2.37;;;19.00;99.90;;;;;;5092644;28;20466;-51
2022/07/29 06:53:29;;;;;;;2.43;2.13;;;19.00;99.90;;;;;;5092556;28;20529;-50
2022/07/29 06:55:57;;;;;;;2.40;2.10;;;19.00;99.90;;;;;;5092446;28;20444;-52
2022/07/29 06:58:25;;;;;;;4.23;2.03;;;19.00;99.90;;;;;;5092250;28;20435;-51
2022/07/29 07:00:52;;;;;;;3.00;2.53;;;18.90;99.90;;;;;;5091933;28;20443;-51
2022/07/29 07:03:20;;;;;;;3.23;2.67;;;19.00;99.90;;;;;;5092681;28;20505;-49
2022/07/29 07:05:48;;;;;;;5.27;2.90;;;18.90;99.90;;;;;;5092242;28;20785;-49
2022/07/29 07:08:16;;;;;;;3.63;2.83;;;18.80;99.90;;;;;;5092360;28;20452;-49
2022/07/29 07:10:43;;;;;;;3.27;2.50;;;18.80;99.90;;;;;;5091726;28;20427;-51
2022/07/29 07:13:10;;;;;;;3.73;2.53;;;18.90;99.90;;;;;;5092075;28;20976;-49
2022/07/29 07:15:38;;;;;;;3.50;3.00;;;18.90;99.90;;;;;;5092063;28;20854;-51
2022/07/29 07:18:06;;;;;;;4.67;2.17;;;18.90;99.90;;;;;;5092050;28;20451;-52
2022/07/29 07:20:33;;;;;;;5.00;2.60;;;18.80;99.90;;;;;;5091810;28;20475;-49
2022/07/29 07:23:02;;;;;;;5.37;3.27;;;19.00;99.90;;;;;;5091852;28;20520;-50
2022/07/29 07:25:29;;;;;;;3.07;2.37;;;19.10;99.90;;;;;;5091803;28;20473;-50
2022/07/29 07:27:56;;;;;;;2.90;2.40;;;19.10;99.90;;;;;;5091755;28;20435;-51
2022/07/29 07:30:23;;;;;;;4.87;2.50;;;19.20;99.90;;;;;;5091487;28;20440;-49
2022/07/29 07:32:50;;;;;;;2.90;2.47;;;19.20;99.90;;;;;;5091371;28;20475;-52
2022/07/29 07:35:17;;;;;;;3.10;2.70;;;19.30;99.90;;;;;;5091793;28;20452;-49
2022/07/29 07:37:44;;;;;;;4.90;2.40;;;19.40;99.90;;;;;;5091577;28;20509;-52
2022/07/29 07:40:13;;;;;;;3.37;2.30;;;19.40;99.90;;;;;;5091467;28;20451;-49
2022/07/29 07:42:41;;;;;;;2.80;2.50;;;19.50;99.90;;;;;;5090945;28;21052;-51
2022/07/29 07:45:10;;;;;;;3.93;2.20;;;19.60;99.90;;;;;;5091424;28;20456;-51
2022/07/29 07:47:37;;;;;;;5.63;2.83;;;19.50;99.90;;;;;;5091613;28;20474;-50
2022/07/29 07:50:06;;;;;;;5.13;2.70;;;19.50;99.90;;;;;;5091061;28;20516;-49
2022/07/29 07:52:33;;;;;;;2.50;2.30;;;19.50;99.90;;;;;;5091017;28;20603;-49
2022/07/29 07:55:00;;;;;;;3.63;2.43;;;19.50;99.90;;;;;;5091095;28;20434;-51
2022/07/29 07:57:29;;;;;;;2.30;2.10;;;19.60;99.90;;;;;;5091142;28;20432;-49
2022/07/29 07:59:56;;;;;;;3.10;2.50;;;19.50;99.90;;;;;;5091182;28;20485;-49
2022/07/29 08:02:23;;;;;;;3.10;2.43;;;19.60;99.90;;;;;;5091146;28;20463;-52
2022/07/29 08:04:50;;;;;;;2.73;2.43;;;19.70;99.90;;;;;;5091107;28;20448;-49
2022/07/29 08:07:17;;;;;;;3.07;2.40;;;19.80;99.90;;;;;;5091079;28;20785;-51
2022/07/29 08:09:43;;;;;;;2.60;2.30;;;19.70;99.90;;;;;;5090764;28;20455;-49
2022/07/29 08:12:10;;;;;;;4.10;2.90;;;19.70;99.90;;;;;;5090730;28;20524;-52
2022/07/29 08:14:39;;;;;;;3.50;2.40;;;19.70;99.90;;;;;;5091184;28;20856;-51
2022/07/29 08:17:06;;;;;;;5.70;4.83;;;19.50;99.90;;;;;;5090773;28;20455;-51
2022/07/29 08:19:33;;;;;;;3.80;3.13;;;19.50;99.90;;;;;;5090505;28;20446;-49
2022/07/29 08:22:00;;;;;;;3.40;3.10;;;19.50;99.90;;;;;;5091154;28;20505;-50
2022/07/29 08:24:52;;;;;;;4.33;3.73;;;19.50;99.90;;;;;;5090747;28;20501;-49
2022/07/29 08:27:20;;;;;;;5.10;4.20;;;19.60;99.90;;;;;;5090584;28;20797;-51
2022/07/29 08:29:48;;;;;;;5.20;3.90;;;19.70;99.90;;;;;;5090476;28;20546;-49
2022/07/29 08:32:15;;;;;;;6.70;5.77;;;19.90;99.90;;;;;;5090366;28;21158;-49
2022/07/29 08:34:44;;;;;;;8.57;5.60;;;20.00;99.90;;;;;;5090491;28;20501;-51
2022/07/29 08:37:11;;;;;;;3.13;2.20;;;20.10;99.90;;;;;;5090432;28;20784;-49
2022/07/29 08:39:38;;;;;;;3.90;2.73;;;20.30;99.90;;;;;;5090346;28;20447;-49
2022/07/29 08:42:06;;;;;;;3.60;3.20;;;20.40;99.90;;;;;;5090240;28;21037;-50
2022/07/29 08:44:34;;;;;;;3.83;3.53;;;20.50;99.90;;;;;;5090349;28;20448;-51
2022/07/29 08:47:04;;;;;;;3.33;3.00;;;20.40;99.90;;;;;;5089869;28;20435;-51
2022/07/29 08:49:31;;;;;;;2.73;2.17;;;20.40;99.90;;;;;;5089997;28;20432;-52
2022/07/29 08:52:00;;;;;;;4.00;2.97;;;20.40;99.90;;;;;;5090134;28;20516;-49
2022/07/29 08:54:28;;;;;;;3.03;2.70;;;20.40;99.90;;;;;;5090264;28;20454;-52
2022/07/29 08:56:56;;;;;;;2.97;2.67;;;20.50;99.90;;;;;;5090765;28;20440;-53
2022/07/29 08:59:26;;;;;;;2.53;2.27;;;20.60;99.90;;;;;;5090071;28;20443;-49
2022/07/29 09:01:54;;;;;;;4.57;2.67;;;20.60;99.90;;;;;;5090005;28;20467;-49
2022/07/29 09:04:27;;;;;;;2.87;2.50;;;20.70;99.90;;;;;;5090507;28;20459;-49
2022/07/29 09:06:57;;;;;;;3.70;2.73;;;20.80;99.90;;;;;;5090131;28;20501;-52
2022/07/29 09:09:24;;;;;;;3.10;2.80;;;21.00;99.90;;;;;;5089934;28;20451;-51
2022/07/29 09:11:52;;;;;;;2.60;2.23;;;21.00;99.90;;;;;;5089906;28;20494;-49
2022/07/29 09:14:20;;;;;;;3.83;3.47;;;21.10;99.90;;;;;;5089926;28;20450;-49
2022/07/29 09:16:49;;;;;;;3.20;2.60;;;21.10;99.90;;;;;;5090030;28;20912;-51
2022/07/29 09:19:26;;;;;;;4.23;3.20;;;21.40;99.90;;;;;;5089836;28;20489;-49
2022/07/29 09:21:59;;;;;;;2.80;2.10;;;21.40;99.90;;;;;;5089957;28;20463;-53
2022/07/29 09:24:42;;;;;;;2.60;2.10;;;21.40;99.90;;;;;;5089792;28;20463;-50
2022/07/29 09:27:22;;;;;;;2.23;2.03;;;21.30;99.90;;;;;;5089823;28;20436;-51
2022/07/29 09:29:58;;;;;;;2.70;2.47;;;21.30;99.90;;;;;;5089502;28;20455;-53
2022/07/29 09:32:26;;;;;;;2.67;2.10;;;21.20;99.90;;;;;;5089515;28;21062;-50
2022/07/29 09:35:14;;;;;;;2.30;2.10;;;21.20;99.90;;;;;;5089819;28;20444;-51
2022/07/29 09:37:41;;;;;;;2.70;1.83;;;21.40;99.90;;;;;;5090101;28;20994;-49
2022/07/29 09:40:13;;;;;;;2.53;2.03;;;21.40;99.90;;;;;;5089960;28;20987;-49
2022/07/29 09:42:42;;;;;;;3.30;2.33;;;21.30;99.90;;;;;;5137898;22;20844;-49
2022/07/29 09:45:10;;;;;;;2.80;2.10;;;21.30;99.90;;;;;;5069434;28;20452;-50
2022/07/29 09:47:48;;;;;;;4.80;2.43;;;21.40;99.90;;;;;;5069530;28;20937;-51
2022/07/29 09:50:19;;;;;;;2.50;2.30;;;21.40;99.90;;;;;;5069188;28;20786;-50
2022/07/29 09:52:48;;;;;;;3.10;2.60;;;21.40;99.90;;;;;;5069488;28;20665;-49
2022/07/29 09:55:15;;;;;;;2.80;2.60;;;21.40;99.90;;;;;;5069551;28;20445;-50
2022/07/29 09:57:42;;;;;;;3.80;2.40;;;21.50;99.90;;;;;;5069771;28;20513;-50
2022/07/29 10:00:11;;;;;;;3.23;2.47;;;21.60;99.90;;;;;;5073073;28;20514;-51
2022/07/29 10:02:41;;;;;;;3.27;2.50;;;21.60;99.90;;;;;;5073146;28;20460;-50
2022/07/29 10:05:19;;;;;;;2.40;2.17;;;21.60;99.90;;;;;;5072947;28;20825;-52
2022/07/29 10:07:48;;;;;;;4.10;2.20;;;21.70;99.90;;;;;;5073065;28;20511;-50
2022/07/29 10:10:22;;;;;;;1.90;1.70;;;21.80;99.90;;;;;;5072908;28;20799;-50
2022/07/29 10:12:54;;;;;;;2.80;2.60;;;21.80;99.90;;;;;;5072710;28;20483;-49
2022/07/29 10:15:23;;;;;;;3.00;2.00;;;21.80;99.90;;;;;;5072976;28;20441;-50
2022/07/29 10:17:51;;;;;;;2.70;2.10;;;21.90;99.90;;;;;;5072748;28;20424;-55
2022/07/29 10:20:20;;;;;;;2.73;2.20;;;22.00;99.90;;;;;;5072669;28;21003;-50
2022/07/29 10:22:48;;;;;;;3.17;1.90;;;22.10;99.90;;;;;;5072896;28;20488;-51
2022/07/29 10:25:16;;;;;;;2.10;1.87;;;22.20;99.90;;;;;;5072788;28;20444;-48
2022/07/29 10:27:43;;;;;;;6.00;2.47;;;22.30;99.90;;;;;;5072742;28;20563;-48
2022/07/29 10:30:14;;;;;;;3.80;2.20;;;22.30;99.90;;;;;;5072693;28;20445;-47
2022/07/29 10:32:55;;;;;;;2.67;2.37;;;22.50;99.90;;;;;;5072438;28;20476;-51
2022/07/29 10:35:45;;;;;;;3.90;1.97;;;22.50;99.90;;;;;;5072552;28;20861;-47
2022/07/29 10:38:30;;;;;;;2.43;1.90;;;22.60;99.90;;;;;;5059629;28;21010;-49
2022/07/29 10:41:29;;;;;;;2.90;2.47;;;22.70;99.90;;;;;;5072149;28;20448;-47
2022/07/29 10:44:00;;;;;;;3.20;2.10;;;22.70;99.90;;;;;;5072392;28;20951;-47
2022/07/29 10:46:28;;;;;;;2.60;2.10;;;22.70;99.90;;;;;;5072486;28;20436;-48
2022/07/29 10:49:12;;;;;;;4.30;2.40;;;22.70;99.90;;;;;;5072167;28;20453;-48
2022/07/29 10:51:59;;;;;;;2.80;2.40;;;22.90;99.90;;;;;;5072277;28;20466;-47
2022/07/29 10:54:47;;;;;;;2.50;2.23;;;23.00;99.90;;;;;;5072163;28;20524;-48
2022/07/29 10:57:19;;;;;;;2.60;2.27;;;23.10;99.90;;;;;;5072057;28;20925;-48
2022/07/29 10:59:47;;;;;;;2.37;2.07;;;23.10;99.90;;;;;;5072069;28;20462;-49
2022/07/29 11:02:50;;;;;;;3.43;2.20;;;23.00;99.90;;;;;;5071921;28;20506;-47
2022/07/29 11:05:19;;;;;;;4.23;1.97;;;23.10;99.90;;;;;;5071937;28;20434;-51
2022/07/29 11:08:21;;;;;;;2.60;2.40;;;23.30;99.90;;;;;;5072322;28;20445;-48
2022/07/29 11:10:49;;;;;;;3.00;1.90;;;23.40;99.90;;;;;;5071563;28;20428;-50
2022/07/29 11:13:46;;;;;;;3.50;2.40;;;23.50;99.90;;;;;;5071700;28;20568;-48
2022/07/29 11:16:14;;;;;;;3.13;2.57;;;23.70;99.90;;;;;;5071910;28;20947;-47
2022/07/29 11:19:14;;;;;;;3.27;2.27;;;23.70;99.90;;;;;;5071719;28;20856;-47
2022/07/29 11:21:43;;;;;;;2.67;2.20;;;23.70;99.90;;;;;;5071694;28;20445;-50
2022/07/29 11:24:15;;;;;;;3.10;2.50;;;23.60;99.90;;;;;;5071612;28;20440;-49
2022/07/29 11:26:42;;;;;;;3.03;2.30;;;23.60;99.90;;;;;;5071582;28;20444;-48
2022/07/29 11:29:19;;;;;;;2.10;1.90;;;23.60;99.90;;;;;;5071461;28;20451;-47
2022/07/29 11:31:51;;;;;;;2.73;1.70;;;23.70;99.90;;;;;;5071539;28;21053;-47
2022/07/29 11:34:30;;;;;;;3.40;1.80;;;23.80;99.90;;;;;;5071397;28;20478;-48
2022/07/29 11:37:17;;;;;;;2.50;2.27;;;23.80;99.90;;;;;;5071369;28;20472;-47
2022/07/29 11:39:47;;;;;;;2.47;2.20;;;23.90;99.90;;;;;;5071189;28;20444;-48
2022/07/29 11:42:43;;;;;;;2.60;2.17;;;24.10;99.90;;;;;;5070739;28;20709;-49
2022/07/29 11:45:13;;;;;;;3.60;1.90;;;24.10;99.90;;;;;;5071192;28;20464;-48
2022/07/29 11:47:42;;;;;;;2.27;1.97;;;24.30;99.90;;;;;;5071393;28;20436;-47
2022/07/29 11:50:12;;;;;;;2.20;1.50;;;24.50;99.90;;;;;;5071042;28;20445;-50
2022/07/29 11:52:45;;;;;;;2.33;1.97;;;24.60;99.90;;;;;;5071123;28;20965;-48
2022/07/29 11:55:15;;;;;;;4.30;1.97;;;24.60;99.90;;;;;;5071025;28;20940;-47
2022/07/29 11:57:49;;;;;;;3.10;1.83;;;24.70;99.90;;;;;;5071103;28;20874;-49
2022/07/29 12:00:33;;;;;;;2.00;1.80;;;24.80;99.90;;;;;;5070883;28;21003;-47
2022/07/29 12:03:02;;;;;;;2.13;1.93;;;24.80;99.90;;;;;;5070736;28;20484;-48
2022/07/29 12:05:38;;;;;;;2.87;2.40;;;24.80;99.90;;;;;;5070790;28;20986;-50
2022/07/29 12:08:07;;;;;;;2.20;1.93;;;24.90;99.90;;;;;;5070638;28;20436;-52
2022/07/29 12:10:36;;;;;;;2.50;2.20;;;24.90;99.90;;;;;;5070573;28;20453;-47
2022/07/29 12:13:03;;;;;;;2.70;2.00;;;25.00;99.90;;;;;;5070529;28;20541;-48
2022/07/29 12:15:30;;;;;;;3.00;2.37;;;25.00;99.90;;;;;;5071112;28;20440;-49
2022/07/29 12:17:57;;;;;;;2.60;2.40;;;25.10;99.90;;;;;;5070593;28;20448;-48
2022/07/29 12:20:26;;;;;;;2.60;2.40;;;25.10;99.90;;;;;;5069802;28;20444;-49
2022/07/29 12:22:54;;;;;;;2.93;1.87;;;25.20;99.90;;;;;;5070475;28;20456;-49
2022/07/29 12:25:22;;;;;;;4.83;2.00;;;25.20;99.90;;;;;;5070379;28;20524;-47
2022/07/29 12:27:59;;;;;;;2.07;1.60;;;25.20;99.90;;;;;;5070468;28;20487;-49
2022/07/29 12:30:38;;;;;;;2.67;2.00;;;25.40;99.90;;;;;;5070084;28;20527;-50
2022/07/29 12:33:22;;;;;;;2.53;1.80;;;25.50;99.90;;;;;;5070143;28;20480;-47
2022/07/29 12:35:52;;;;;;;2.90;2.10;;;25.60;99.90;;;;;;5070230;28;20444;-51
2022/07/29 12:38:20;;;;;;;2.90;2.43;;;25.60;99.90;;;;;;5070691;28;20448;-50
2022/07/29 12:40:48;;;;;;;2.40;2.00;;;25.60;99.90;;;;;;5069537;28;20909;-47
2022/07/29 12:43:18;;;;;;;2.70;2.47;;;25.60;99.90;;;;;;5070451;28;20530;-47
2022/07/29 12:45:47;;;;;;;3.07;2.63;;;25.60;99.90;;;;;;5070076;28;20466;-50
2022/07/29 12:48:15;;;;;;;2.33;1.97;;;25.60;99.90;;;;;;5070484;28;20436;-50
2022/07/29 12:50:57;;;;;;;2.23;1.83;;;25.50;99.90;;;;;;5069915;28;20445;-51
2022/07/29 12:53:24;;;;;;;3.03;2.50;;;25.60;99.90;;;;;;5069885;28;20522;-47
2022/07/29 12:55:52;;;;;;;2.00;1.80;;;25.70;99.90;;;;;;5070098;28;20513;-48
2022/07/29 12:58:33;;;;;;;2.73;2.47;;;25.80;99.90;;;;;;5070114;28;20863;-47
2022/07/29 13:01:10;;;;;;;2.50;2.23;;;25.70;99.90;;;;;;5069921;28;20518;-48
2022/07/29 13:03:50;;;;;;;3.10;2.80;;;25.80;99.90;;;;;;5070079;28;20469;-47
2022/07/29 13:06:38;;;;;;;2.70;2.50;;;25.80;99.90;;;;;;5070032;28;20501;-50
2022/07/29 13:09:10;;;;;;;2.17;1.97;;;25.90;99.90;;;;;;5069551;28;20432;-51